createdAt,value
2023-01-17T00:02:25.198Z,98224.53
2023-01-17T00:05:45.827Z,98231.56
2023-01-17T00:09:05.828Z,98224.38
2023-01-17T00:12:08.086Z,98208.69
2023-01-17T00:15:10.578Z,98199.41
2023-01-17T00:18:12.294Z,98196.84
2023-01-17T00:21:32.923Z,98191.84
2023-01-17T00:24:53.268Z,98190.41
2023-01-17T00:27:54.917Z,98175.03
2023-01-17T00:30:56.966Z,98179.44
2023-01-17T00:33:58.656Z,98181.94
2023-01-17T00:37:00.301Z,98172.59
2023-01-17T00:40:02.264Z,98170.94
2023-01-17T00:43:23.827Z,98176.19
2023-01-17T00:46:44.250Z,98165.16
2023-01-17T00:50:04.929Z,98165.25
2023-01-17T00:53:25.226Z,98163.63
2023-01-17T00:56:45.652Z,98160.31
2023-01-17T01:00:06.457Z,98160.31
2023-01-17T01:03:28.903Z,98159.53
2023-01-17T01:06:49.176Z,98157.72
2023-01-17T01:10:09.231Z,98161.31
2023-01-17T01:13:29.482Z,98158.78
2023-01-17T01:16:49.859Z,98162.94
2023-01-17T01:20:10.193Z,98168.19
2023-01-17T01:23:30.393Z,98164.91
2023-01-17T01:26:50.670Z,98164.06
2023-01-17T01:30:10.923Z,98165.78
2023-01-17T01:33:21.130Z,98164.06
2023-01-17T01:36:22.976Z,98162.41
2023-01-17T01:39:24.742Z,98166.63
2023-01-17T01:42:26.428Z,98164.16
2023-01-17T01:45:30.402Z,98170.16
2023-01-17T01:48:37.318Z,98168.59
2023-01-17T01:51:44.574Z,98171.28
2023-01-17T01:54:58.646Z,98169.69
2023-01-17T01:58:04.681Z,98173.09
2023-01-17T02:01:08.684Z,98168.25
2023-01-17T02:04:11.047Z,98168.44
2023-01-17T02:07:20.347Z,98159.75
2023-01-17T02:10:22.258Z,98169.69
2023-01-17T02:13:24.112Z,98174.03
2023-01-17T02:16:37.814Z,98169.09
2023-01-17T02:20:17.295Z,98180.63
2023-01-17T02:23:37.695Z,98175.94
2023-01-17T02:26:52.651Z,98170.91
2023-01-17T02:30:12.772Z,98170.41
2023-01-17T02:33:29.333Z,98169.47
2023-01-17T02:36:42.137Z,98184.34
2023-01-17T02:39:55.363Z,98187.56
2023-01-17T02:43:02.854Z,98188.84
2023-01-17T02:46:04.787Z,98200.63
2023-01-17T02:49:07.575Z,98194.13
2023-01-17T02:52:44.650Z,98209.00
2023-01-17T02:55:46.328Z,98199.59
2023-01-17T02:59:01.863Z,98211.16
2023-01-17T03:02:14.084Z,98193.34
2023-01-17T03:05:23.240Z,98190.75
2023-01-17T03:08:26.001Z,98186.16
2023-01-17T03:11:27.869Z,98174.59
2023-01-17T03:14:31.325Z,98166.94
2023-01-17T03:17:33.324Z,98162.81
2023-01-17T03:20:35.063Z,98141.53
2023-01-17T03:23:36.967Z,98146.88
2023-01-17T03:26:38.730Z,98137.19
2023-01-17T03:29:40.494Z,98131.19
2023-01-17T03:32:42.273Z,98115.38
2023-01-17T03:35:47.826Z,98110.63
2023-01-17T03:38:50.524Z,98119.84
2023-01-17T03:41:52.192Z,98102.50
2023-01-17T03:44:53.924Z,98102.38
2023-01-17T03:47:57.750Z,98104.09
2023-01-17T03:50:59.925Z,98107.62
2023-01-17T03:54:01.682Z,98089.41
2023-01-17T03:57:03.396Z,98102.28
2023-01-17T04:00:05.808Z,98093.66
2023-01-17T04:03:07.727Z,98092.78
2023-01-17T04:06:09.386Z,98067.72
2023-01-17T04:09:11.190Z,98019.53
2023-01-17T04:12:12.993Z,98021.19
2023-01-17T04:15:14.809Z,98006.75
2023-01-17T04:18:21.090Z,98014.38
2023-01-17T04:21:23.382Z,98035.03
2023-01-17T04:24:25.106Z,98036.84
2023-01-17T04:27:26.891Z,98015.31
2023-01-17T04:30:29.414Z,98017.13
2023-01-17T04:33:31.285Z,98013.91
2023-01-17T04:36:33.017Z,98015.53
2023-01-17T04:39:34.915Z,98017.47
2023-01-17T04:42:36.921Z,98025.00
2023-01-17T04:45:38.898Z,98033.66
2023-01-17T04:48:40.624Z,98038.91
2023-01-17T04:51:42.288Z,98025.00
2023-01-17T04:54:44.413Z,98036.16
2023-01-17T04:57:47.810Z,98032.00
2023-01-17T05:00:51.119Z,98043.03
2023-01-17T05:03:52.857Z,98038.91
2023-01-17T05:06:55.088Z,98044.25
2023-01-17T05:09:56.776Z,98039.66
2023-01-17T05:12:59.812Z,98055.06
2023-01-17T05:16:01.708Z,98061.16
2023-01-17T05:19:03.415Z,98064.56
2023-01-17T05:22:15.252Z,98063.56
2023-01-17T05:25:17.120Z,98070.53
2023-01-17T05:28:18.782Z,98072.25
2023-01-17T05:31:20.684Z,98079.97
2023-01-17T05:34:22.451Z,98079.66
2023-01-17T05:37:25.179Z,98077.56
2023-01-17T05:40:30.864Z,98088.56
2023-01-17T05:43:32.611Z,98080.50
2023-01-17T05:46:34.380Z,98082.91
2023-01-17T05:49:36.200Z,98090.44
2023-01-17T05:52:37.955Z,98096.37
2023-01-17T05:55:40.842Z,98109.16
2023-01-17T05:58:42.592Z,98115.84
2023-01-17T06:01:44.342Z,98114.09
2023-01-17T06:04:46.023Z,98120.03
2023-01-17T06:07:48.374Z,98111.50
2023-01-17T06:10:50.080Z,98129.53
2023-01-17T06:13:52.021Z,98128.94
2023-01-17T06:16:54.206Z,98126.47
2023-01-17T06:19:57.001Z,98128.28
2023-01-17T06:23:01.479Z,98124.81
2023-01-17T06:26:04.589Z,98137.34
2023-01-17T06:29:06.331Z,98130.09
2023-01-17T06:32:09.213Z,98141.41
2023-01-17T06:35:10.900Z,98147.59
2023-01-17T06:38:12.665Z,98149.53
2023-01-17T06:41:14.413Z,98154.91
2023-01-17T06:44:17.100Z,98158.22
2023-01-17T06:47:18.843Z,98165.78
2023-01-17T06:50:20.596Z,98157.47
2023-01-17T06:53:22.405Z,98164.31
2023-01-17T06:56:24.306Z,98180.72
2023-01-17T06:59:28.130Z,98181.66
2023-01-17T07:02:29.856Z,98175.66
2023-01-17T07:05:31.605Z,98176.78
2023-01-17T07:08:33.337Z,98182.00
2023-01-17T07:11:35.081Z,98176.12
2023-01-17T07:14:36.774Z,98178.00
2023-01-17T07:17:39.020Z,98189.38
2023-01-17T07:20:43.953Z,98185.22
2023-01-17T07:23:45.770Z,98193.78
2023-01-17T07:26:51.876Z,98205.38
2023-01-17T07:29:54.363Z,98217.41
2023-01-17T07:32:56.572Z,98221.34
2023-01-17T07:35:58.308Z,98217.37
2023-01-17T07:39:00.005Z,98233.16
2023-01-17T07:42:02.833Z,98234.59
2023-01-17T07:45:05.080Z,98240.75
2023-01-17T07:48:06.971Z,98242.50
2023-01-17T07:51:09.699Z,98250.81
2023-01-17T07:54:11.848Z,98248.69
2023-01-17T07:57:13.637Z,98243.72
2023-01-17T08:00:15.878Z,98240.31
2023-01-17T08:03:18.257Z,98240.69
2023-01-17T08:06:23.217Z,98236.31
2023-01-17T08:09:25.029Z,98238.22
2023-01-17T08:12:27.166Z,98244.97
2023-01-17T08:15:28.940Z,98248.66
2023-01-17T08:18:30.938Z,98252.28
2023-01-17T08:21:32.655Z,98248.72
2023-01-17T08:24:34.692Z,98258.09
2023-01-17T08:27:36.855Z,98269.19
2023-01-17T08:30:38.830Z,98270.31
2023-01-17T08:33:40.612Z,98273.88
2023-01-17T08:36:47.913Z,98287.25
2023-01-17T08:39:51.279Z,98286.37
2023-01-17T08:42:56.106Z,98283.97
2023-01-17T08:45:57.959Z,98295.69
2023-01-17T08:49:02.727Z,98300.91
2023-01-17T08:52:05.363Z,98309.19
2023-01-17T08:55:10.150Z,98314.72
2023-01-17T08:58:11.947Z,98319.81
2023-01-17T09:01:13.829Z,98329.09
2023-01-17T09:04:15.757Z,98336.59
2023-01-17T09:07:20.517Z,98331.44
2023-01-17T09:10:23.618Z,98343.75
2023-01-17T09:13:25.362Z,98335.81
2023-01-17T09:16:27.116Z,98340.03
2023-01-17T09:19:29.566Z,98345.16
2023-01-17T09:22:31.297Z,98348.53
2023-01-17T09:25:33.048Z,98352.00
2023-01-17T09:28:41.074Z,98349.28
2023-01-17T09:31:42.864Z,98348.66
2023-01-17T09:34:44.633Z,98353.00
2023-01-17T09:37:50.415Z,98359.94
2023-01-17T09:40:52.164Z,98363.59
2023-01-17T09:44:16.915Z,98368.28
2023-01-17T09:47:33.563Z,98369.91
2023-01-17T09:50:52.979Z,98370.28
2023-01-17T09:53:55.400Z,98375.22
2023-01-17T09:57:08.903Z,98372.69
2023-01-17T10:00:30.309Z,98387.38
2023-01-17T10:03:51.142Z,98380.34
2023-01-17T10:07:02.094Z,98376.72
2023-01-17T10:10:29.269Z,98370.34
2023-01-17T10:13:50.107Z,98371.44
2023-01-17T10:17:16.410Z,98381.78
2023-01-17T10:20:45.259Z,98372.72
2023-01-17T10:24:16.384Z,98361.34
2023-01-17T10:27:40.256Z,98357.09
2023-01-17T10:30:48.987Z,98356.59
2023-01-17T10:33:56.111Z,98365.59
2023-01-17T10:37:15.865Z,98364.91
2023-01-17T10:40:41.215Z,98374.56
2023-01-17T10:43:52.723Z,98380.06
2023-01-17T10:47:18.313Z,98384.31
2023-01-17T10:50:22.972Z,98383.47
2023-01-17T10:53:36.464Z,98375.69
2023-01-17T10:56:40.479Z,98376.00
2023-01-17T10:59:44.152Z,98369.34
2023-01-17T11:02:50.604Z,98366.97
2023-01-17T11:06:16.148Z,98369.81
2023-01-17T11:09:20.774Z,98372.19
2023-01-17T11:12:33.317Z,98369.03
2023-01-17T11:15:39.825Z,98361.63
2023-01-17T11:18:42.854Z,98362.28
2023-01-17T11:21:58.579Z,98366.28
2023-01-17T11:25:01.215Z,98355.22
2023-01-17T11:28:05.324Z,98353.72
2023-01-17T11:31:27.404Z,98344.31
2023-01-17T11:34:32.053Z,98354.59
2023-01-17T11:37:35.321Z,98361.69
2023-01-17T11:40:44.078Z,98355.31
2023-01-17T11:43:51.980Z,98368.50
2023-01-17T11:47:11.890Z,98364.47
2023-01-17T11:50:27.197Z,98370.59
2023-01-17T11:53:37.049Z,98367.22
2023-01-17T11:56:40.679Z,98368.97
2023-01-17T11:59:47.718Z,98354.28
2023-01-17T12:03:03.891Z,98350.94
2023-01-17T12:06:56.919Z,98350.47
2023-01-17T12:10:04.972Z,98340.53
2023-01-17T12:13:24.964Z,98336.34
2023-01-17T12:16:44.862Z,98340.22
2023-01-17T12:20:05.444Z,98332.84
2023-01-17T12:23:36.376Z,98337.94
2023-01-17T12:26:43.281Z,98335.22
2023-01-17T12:29:58.881Z,98338.81
2023-01-17T12:33:13.278Z,98349.13
2023-01-17T12:36:18.009Z,98363.75
2023-01-17T12:39:26.164Z,98357.84
2023-01-17T12:42:32.925Z,98361.47
2023-01-17T12:45:47.110Z,98362.47
2023-01-17T12:48:54.408Z,98357.13
2023-01-17T12:52:07.621Z,98357.19
2023-01-17T12:55:17.729Z,98352.72
2023-01-17T12:58:23.844Z,98348.47
2023-01-17T13:01:30.900Z,98356.16
2023-01-17T13:04:58.432Z,98366.28
2023-01-17T13:08:25.069Z,98366.66
2023-01-17T13:11:30.248Z,98361.72
2023-01-17T13:14:32.948Z,98349.88
2023-01-17T13:17:45.666Z,98357.53
2023-01-17T13:21:11.473Z,98357.66
2023-01-17T13:24:31.599Z,98366.81
2023-01-17T13:27:40.227Z,98371.97
2023-01-17T13:31:22.840Z,98368.47
2023-01-17T13:34:30.593Z,98365.94
2023-01-17T13:37:53.778Z,98363.22
2023-01-17T13:41:04.452Z,98376.84
2023-01-17T13:44:22.975Z,98378.53
2023-01-17T13:47:43.296Z,98358.78
2023-01-17T13:50:44.867Z,98363.97
2023-01-17T13:53:47.242Z,98354.94
2023-01-17T13:56:48.958Z,98337.69
2023-01-17T13:59:50.789Z,98335.47
2023-01-17T14:02:55.386Z,98337.03
2023-01-17T14:05:57.338Z,98320.78
2023-01-17T14:09:15.719Z,98317.37
2023-01-17T14:12:20.124Z,98304.69
2023-01-17T14:15:25.656Z,98294.66
2023-01-17T14:18:30.422Z,98278.78
2023-01-17T14:21:32.537Z,98263.63
2023-01-17T14:24:34.259Z,98247.66
2023-01-17T14:27:58.493Z,98245.25
2023-01-17T14:31:03.024Z,98237.69
2023-01-17T14:34:14.047Z,98221.59
2023-01-17T14:37:19.761Z,98218.88
2023-01-17T14:40:26.058Z,98211.88
2023-01-17T14:43:32.994Z,98212.66
2023-01-17T14:46:34.912Z,98220.25
2023-01-17T14:49:36.630Z,98223.84
2023-01-17T14:52:38.422Z,98232.22
2023-01-17T14:55:49.171Z,98219.94
2023-01-17T14:59:24.195Z,98214.78
2023-01-17T15:02:26.077Z,98219.38
2023-01-17T15:05:29.937Z,98212.22
2023-01-17T15:08:35.480Z,98203.81
2023-01-17T15:11:37.856Z,98207.91
2023-01-17T15:14:46.576Z,98204.25
2023-01-17T15:17:48.257Z,98204.75
2023-01-17T15:21:02.547Z,98199.53
2023-01-17T15:24:08.410Z,98194.41
2023-01-17T15:27:15.308Z,98197.78
2023-01-17T15:30:17.781Z,98203.06
2023-01-17T15:33:21.123Z,98199.19
2023-01-17T15:36:33.208Z,98202.91
2023-01-17T15:39:38.043Z,98201.00
2023-01-17T15:42:44.116Z,98204.44
2023-01-17T15:45:55.638Z,98207.12
2023-01-17T15:49:29.259Z,98204.25
2023-01-17T15:52:31.050Z,98214.59
2023-01-17T15:55:38.100Z,98199.19
2023-01-17T15:58:39.726Z,98186.22
2023-01-17T16:01:41.613Z,98188.13
2023-01-17T16:04:43.413Z,98182.81
2023-01-17T16:07:45.103Z,98170.78
2023-01-17T16:10:46.784Z,98168.88
2023-01-17T16:13:49.227Z,98159.31
2023-01-17T16:16:54.331Z,98159.31
2023-01-17T16:19:56.648Z,98155.03
2023-01-17T16:23:00.334Z,98152.50
2023-01-17T16:26:02.254Z,98142.13
2023-01-17T16:29:04.133Z,98136.09
2023-01-17T16:32:09.113Z,98135.06
2023-01-17T16:35:19.163Z,98134.28
2023-01-17T16:38:20.946Z,98125.56
2023-01-17T16:41:22.780Z,98129.06
2023-01-17T16:44:24.481Z,98121.22
2023-01-17T16:47:26.143Z,98114.22
2023-01-17T16:50:27.769Z,98110.81
2023-01-17T16:53:29.528Z,98096.88
2023-01-17T16:56:31.259Z,98098.78
2023-01-17T16:59:49.619Z,98097.75
2023-01-17T17:02:53.159Z,98089.03
2023-01-17T17:05:57.151Z,98089.94
2023-01-17T17:08:59.546Z,98083.03
2023-01-17T17:12:01.521Z,98077.00
2023-01-17T17:15:03.880Z,98064.94
2023-01-17T17:18:05.692Z,98068.22
2023-01-17T17:21:07.649Z,98065.59
2023-01-17T17:24:13.112Z,98061.41
2023-01-17T17:27:15.467Z,98057.13
2023-01-17T17:30:18.392Z,98055.38
2023-01-17T17:33:20.117Z,98048.41
2023-01-17T17:36:22.267Z,98039.97
2023-01-17T17:39:24.759Z,98028.06
2023-01-17T17:42:26.881Z,98014.09
2023-01-17T17:45:28.640Z,98008.12
2023-01-17T17:48:30.542Z,97981.37
2023-01-17T17:51:35.166Z,97978.00
2023-01-17T17:54:37.441Z,97960.03
2023-01-17T17:57:40.047Z,97942.94
2023-01-17T18:00:42.118Z,97928.41
2023-01-17T18:03:46.355Z,97907.69
2023-01-17T18:06:49.047Z,97907.44
2023-01-17T18:09:51.440Z,97875.63
2023-01-17T18:12:53.704Z,97864.41
2023-01-17T18:16:12.684Z,97845.41
2023-01-17T18:19:20.966Z,97836.91
2023-01-17T18:22:23.108Z,97836.97
2023-01-17T18:25:25.736Z,97823.25
2023-01-17T18:28:27.742Z,97823.22
2023-01-17T18:31:31.517Z,97808.63
2023-01-17T18:34:37.240Z,97799.97
2023-01-17T18:37:39.978Z,97793.22
2023-01-17T18:40:43.961Z,97787.16
2023-01-17T18:43:48.105Z,97782.81
2023-01-17T18:46:52.735Z,97787.19
2023-01-17T18:49:58.335Z,97785.47
2023-01-17T18:53:00.703Z,97793.22
2023-01-17T18:56:06.551Z,97779.44
2023-01-17T18:59:11.589Z,97783.72
2023-01-17T19:02:15.031Z,97778.56
2023-01-17T19:05:19.656Z,97780.22
2023-01-17T19:08:23.582Z,97765.63
2023-01-17T19:11:27.072Z,97768.97
2023-01-17T19:14:29.315Z,97758.66
2023-01-17T19:17:32.861Z,97747.53
2023-01-17T19:20:36.399Z,97738.09
2023-01-17T19:23:42.723Z,97730.31
2023-01-17T19:26:45.661Z,97725.09
2023-01-17T19:29:48.099Z,97713.03
2023-01-17T19:32:52.307Z,97699.31
2023-01-17T19:36:00.237Z,97712.28
2023-01-17T19:39:06.205Z,97693.44
2023-01-17T19:42:15.811Z,97696.97
2023-01-17T19:45:18.638Z,97674.50
2023-01-17T19:48:23.438Z,97666.81
2023-01-17T19:51:30.340Z,97665.97
2023-01-17T19:54:33.204Z,97641.16
2023-01-17T19:57:37.275Z,97618.75
2023-01-17T20:00:46.423Z,97598.16
2023-01-17T20:03:50.959Z,97603.34
2023-01-17T20:06:53.800Z,97593.03
2023-01-17T20:09:56.681Z,97578.44
2023-01-17T20:13:01.005Z,97572.44
2023-01-17T20:16:05.694Z,97600.87
2023-01-17T20:19:08.654Z,97583.75
2023-01-17T20:22:12.262Z,97565.72
2023-01-17T20:25:14.721Z,97569.22
2023-01-17T20:28:17.281Z,97559.72
2023-01-17T20:31:22.481Z,97533.97
2023-01-17T20:34:26.404Z,97542.56
2023-01-17T20:37:28.548Z,97520.16
2023-01-17T20:40:31.205Z,97507.25
2023-01-17T20:43:35.084Z,97503.81
2023-01-17T20:46:44.002Z,97494.31
2023-01-17T20:49:46.392Z,97470.19
2023-01-17T20:52:58.925Z,97475.38
2023-01-17T20:56:01.266Z,97477.97
2023-01-17T20:59:07.608Z,97480.59
2023-01-17T21:02:10.973Z,97468.50
2023-01-17T21:05:14.677Z,97465.06
2023-01-17T21:08:18.608Z,97459.03
2023-01-17T21:11:23.434Z,97453.00
2023-01-17T21:14:25.493Z,97451.25
2023-01-17T21:17:27.267Z,97446.97
2023-01-17T21:20:29.105Z,97450.44
2023-01-17T21:23:30.856Z,97441.81
2023-01-17T21:26:32.655Z,97450.44
2023-01-17T21:29:34.344Z,97447.00
2023-01-17T21:32:36.194Z,97444.44
2023-01-17T21:35:37.888Z,97440.09
2023-01-17T21:38:39.578Z,97438.41
2023-01-17T21:41:43.025Z,97448.72
2023-01-17T21:44:45.328Z,97446.16
2023-01-17T21:47:48.008Z,97458.22
2023-01-17T21:50:52.564Z,97450.44
2023-01-17T21:53:54.607Z,97445.28
2023-01-17T21:57:14.764Z,97440.97
2023-01-17T22:00:17.124Z,97443.59
2023-01-17T22:03:18.839Z,97423.75
2023-01-17T22:06:21.966Z,97416.00
2023-01-17T22:09:24.698Z,97415.13
2023-01-17T22:12:26.433Z,97413.38
2023-01-17T22:15:28.261Z,97422.84
2023-01-17T22:18:31.037Z,97428.91
2023-01-17T22:21:32.736Z,97430.63
2023-01-17T22:24:34.549Z,97425.44
2023-01-17T22:27:36.260Z,97423.72
2023-01-17T22:30:38.212Z,97435.81
2023-01-17T22:33:41.847Z,97422.84
2023-01-17T22:36:45.176Z,97425.44
2023-01-17T22:39:47.061Z,97421.97
2023-01-17T22:42:48.808Z,97422.78
2023-01-17T22:45:58.801Z,97415.00
2023-01-17T22:49:00.566Z,97417.56
2023-01-17T22:52:02.241Z,97411.41
2023-01-17T22:55:04.601Z,97421.78
2023-01-17T22:58:06.847Z,97422.63
2023-01-17T23:01:13.834Z,97405.38
2023-01-17T23:04:17.309Z,97420.09
2023-01-17T23:07:19.065Z,97413.19
2023-01-17T23:10:39.332Z,97430.47
2023-01-17T23:13:41.150Z,97439.09
2023-01-17T23:17:06.058Z,97440.00
2023-01-17T23:20:09.664Z,97445.19
2023-01-17T23:23:11.303Z,97456.41
2023-01-17T23:26:13.019Z,97439.16
2023-01-17T23:29:14.724Z,97449.53
2023-01-17T23:32:16.467Z,97454.72
2023-01-17T23:35:20.663Z,97447.81
2023-01-17T23:38:31.261Z,97444.34
2023-01-17T23:41:51.805Z,97440.97
2023-01-17T23:44:53.892Z,97443.56
2023-01-17T23:47:55.826Z,97461.66
2023-01-17T23:51:00.258Z,97480.66
2023-01-17T23:54:05.468Z,97476.31
2023-01-17T23:57:07.247Z,97489.28
